createdAt,value
2019-05-20T00:01:54.181Z,99.90
2019-05-20T00:04:28.762Z,99.90
2019-05-20T00:07:00.945Z,99.90
2019-05-20T00:12:22.510Z,99.90
2019-05-20T00:14:58.626Z,99.90
2019-05-20T00:17:37.869Z,99.90
2019-05-20T00:20:16.619Z,99.90
2019-05-20T00:28:47.357Z,99.90
2019-05-20T00:35:09.171Z,99.90
2019-05-20T00:37:39.734Z,99.90
2019-05-20T00:40:20.383Z,99.90
2019-05-20T00:42:52.524Z,99.90
2019-05-20T00:45:29.145Z,99.90
2019-05-20T00:48:17.525Z,99.90
2019-05-20T00:50:52.781Z,99.90
2019-05-20T00:53:26.207Z,99.90
2019-05-20T00:56:03.009Z,99.90
2019-05-20T00:58:35.038Z,99.90
2019-05-20T01:01:11.249Z,99.90
2019-05-20T01:03:50.967Z,99.90
2019-05-20T01:06:24.236Z,99.90
2019-05-20T01:08:56.317Z,99.90
2019-05-20T01:11:29.838Z,99.90
2019-05-20T01:16:52.208Z,99.90
2019-05-20T01:19:22.999Z,99.90
2019-05-20T01:21:55.284Z,99.90
2019-05-20T01:24:31.453Z,99.90
2019-05-20T01:27:02.822Z,99.90
2019-05-20T01:29:35.101Z,99.90
2019-05-20T01:35:07.754Z,99.90
2019-05-20T01:37:45.656Z,99.90
2019-05-20T01:43:57.458Z,99.90
2019-05-20T01:46:27.915Z,99.90
2019-05-20T01:48:58.710Z,99.90
2019-05-20T01:51:29.463Z,99.90
2019-05-20T01:54:00.602Z,99.90
2019-05-20T01:56:31.043Z,99.90
2019-05-20T01:59:01.502Z,99.90
2019-05-20T02:01:31.953Z,99.90
2019-05-20T02:04:02.387Z,99.90
2019-05-20T02:06:32.902Z,99.90
2019-05-20T02:09:03.422Z,99.90
2019-05-20T02:11:33.851Z,99.90
2019-05-20T02:14:05.970Z,99.90
2019-05-20T02:16:36.436Z,99.90
2019-05-20T02:19:06.945Z,99.90
2019-05-20T02:21:37.391Z,99.90
2019-05-20T02:24:07.874Z,99.90
2019-05-20T02:26:38.303Z,99.90
2019-05-20T02:29:08.830Z,99.90
2019-05-20T02:31:39.216Z,99.90
2019-05-20T02:34:09.680Z,99.90
2019-05-20T02:36:40.170Z,99.90
2019-05-20T02:39:10.651Z,99.90
2019-05-20T02:41:41.097Z,99.90
2019-05-20T02:44:11.844Z,99.90
2019-05-20T02:46:42.334Z,99.90
2019-05-20T02:49:12.817Z,99.90
2019-05-20T02:51:43.330Z,99.90
2019-05-20T02:54:13.952Z,99.90
2019-05-20T02:56:45.137Z,99.90
2019-05-20T02:59:15.631Z,99.90
2019-05-20T03:01:46.085Z,99.90
2019-05-20T03:04:16.843Z,99.90
2019-05-20T03:06:47.291Z,99.90
2019-05-20T03:09:17.790Z,99.90
2019-05-20T03:11:48.246Z,99.90
2019-05-20T03:14:18.742Z,99.90
2019-05-20T03:16:50.771Z,99.90
2019-05-20T03:19:21.224Z,99.90
2019-05-20T03:21:51.710Z,99.90
2019-05-20T03:24:22.230Z,99.90
2019-05-20T03:26:52.745Z,99.90
2019-05-20T03:29:23.227Z,99.90
2019-05-20T03:31:53.753Z,99.90
2019-05-20T03:34:45.664Z,99.90
2019-05-20T03:36:56.400Z,99.90
2019-05-20T03:39:26.896Z,99.90
2019-05-20T03:41:57.431Z,99.90
2019-05-20T03:44:30.760Z,99.90
2019-05-20T03:47:01.168Z,99.90
2019-05-20T03:49:31.607Z,99.90
2019-05-20T03:52:02.058Z,99.90
2019-05-20T03:54:32.603Z,99.90
2019-05-20T03:57:03.077Z,99.90
2019-05-20T03:59:34.333Z,99.90
2019-05-20T04:02:04.717Z,99.90
2019-05-20T04:04:35.190Z,99.90
2019-05-20T04:07:05.653Z,99.90
2019-05-20T04:09:36.124Z,99.90
2019-05-20T04:12:06.822Z,99.90
2019-05-20T04:14:37.395Z,99.90
2019-05-20T04:17:07.867Z,99.90
2019-05-20T04:19:38.575Z,99.90
2019-05-20T04:22:09.074Z,99.90
2019-05-20T04:24:39.545Z,99.90
2019-05-20T04:27:10.258Z,99.90
2019-05-20T04:29:40.800Z,99.90
2019-05-20T04:32:11.256Z,99.90
2019-05-20T04:34:41.830Z,99.90
2019-05-20T04:37:12.292Z,99.90
2019-05-20T04:39:42.876Z,99.90
2019-05-20T04:42:13.358Z,99.90
2019-05-20T04:44:43.893Z,99.90
2019-05-20T04:47:14.458Z,99.90
2019-05-20T04:49:45.085Z,99.90
2019-05-20T04:52:15.876Z,99.90
2019-05-20T04:54:46.573Z,99.90
2019-05-20T04:57:17.026Z,99.90
2019-05-20T04:59:47.510Z,99.90
2019-05-20T05:02:18.692Z,99.90
2019-05-20T05:04:49.131Z,99.90
2019-05-20T05:07:21.600Z,99.90
2019-05-20T05:09:52.121Z,99.90
2019-05-20T05:12:30.068Z,99.90
2019-05-20T05:15:00.666Z,99.90
2019-05-20T05:17:32.743Z,99.90
2019-05-20T05:20:03.878Z,99.90
2019-05-20T05:22:34.406Z,99.90
2019-05-20T05:25:06.981Z,99.90
2019-05-20T05:27:37.446Z,1.00
2019-05-20T05:30:08.592Z,1.00
2019-05-20T05:32:42.515Z,1.00
2019-05-20T05:35:14.789Z,1.00
2019-05-20T05:37:45.598Z,1.00
2019-05-20T05:40:17.924Z,1.00
2019-05-20T05:42:48.392Z,1.00
2019-05-20T05:45:23.467Z,1.00
2019-05-20T05:47:53.924Z,1.00
2019-05-20T05:50:24.418Z,1.00
2019-05-20T05:52:54.860Z,1.00
2019-05-20T05:55:26.217Z,1.00
2019-05-20T05:57:57.124Z,1.00
2019-05-20T06:00:27.857Z,1.00
2019-05-20T06:02:58.329Z,99.90
2019-05-20T06:05:31.741Z,99.90
2019-05-20T06:08:01.664Z,99.90
2019-05-20T06:10:35.524Z,99.90
2019-05-20T06:13:04.619Z,99.90
2019-05-20T06:15:35.401Z,99.90
2019-05-20T06:18:05.845Z,1.00
2019-05-20T06:20:36.333Z,1.00
2019-05-20T06:23:06.773Z,1.00
2019-05-20T06:25:37.258Z,1.00
2019-05-20T06:28:07.758Z,1.00
2019-05-20T06:30:43.163Z,1.00
2019-05-20T06:33:13.985Z,1.00
2019-05-20T06:35:44.997Z,99.90
2019-05-20T06:38:17.441Z,99.90
2019-05-20T06:40:47.885Z,99.90
2019-05-20T06:43:18.370Z,1.00
2019-05-20T06:45:51.511Z,99.90
2019-05-20T06:48:21.960Z,99.90
2019-05-20T06:50:52.422Z,99.90
2019-05-20T06:53:22.967Z,99.90
2019-05-20T06:55:53.506Z,99.90
2019-05-20T06:58:24.019Z,99.90
2019-05-20T07:00:54.489Z,99.90
2019-05-20T07:03:24.941Z,99.90
2019-05-20T07:05:55.458Z,99.90
2019-05-20T07:08:26.619Z,99.90
2019-05-20T07:10:57.061Z,99.90
2019-05-20T07:13:27.528Z,99.90
2019-05-20T07:15:59.678Z,99.90
2019-05-20T07:18:30.136Z,99.90
2019-05-20T07:21:00.603Z,99.90
2019-05-20T07:23:32.459Z,99.90
2019-05-20T07:26:03.026Z,99.90
2019-05-20T07:28:33.562Z,99.90
2019-05-20T07:31:04.018Z,99.90
2019-05-20T07:33:34.845Z,99.90
2019-05-20T07:36:05.381Z,99.90
2019-05-20T07:38:35.981Z,99.90
2019-05-20T07:41:08.174Z,99.90
2019-05-20T07:43:38.709Z,99.90
2019-05-20T07:46:10.943Z,99.90
2019-05-20T07:48:41.917Z,99.90
2019-05-20T07:51:13.379Z,99.90
2019-05-20T07:53:44.432Z,99.90
2019-05-20T07:56:25.349Z,99.90
2019-05-20T07:59:00.422Z,99.90
2019-05-20T08:01:31.049Z,99.90
2019-05-20T08:04:01.552Z,99.90
2019-05-20T08:06:32.117Z,99.90
2019-05-20T08:09:02.587Z,99.90
2019-05-20T08:11:33.873Z,99.90
2019-05-20T08:14:04.948Z,80.60
2019-05-20T08:16:35.664Z,1.00
2019-05-20T08:19:06.257Z,1.00
2019-05-20T08:21:38.700Z,1.00
2019-05-20T08:24:09.528Z,32.10
2019-05-20T08:26:41.679Z,1.00
2019-05-20T08:29:16.092Z,1.00
2019-05-20T08:31:46.543Z,1.00
2019-05-20T08:37:18.817Z,1.00
2019-05-20T08:39:51.415Z,1.00
2019-05-20T08:42:30.464Z,1.00
2019-05-20T08:44:55.793Z,1.00
2019-05-20T08:47:26.634Z,1.00
2019-05-20T08:49:59.343Z,1.00
2019-05-20T08:52:30.068Z,1.00
2019-05-20T08:55:00.533Z,1.00
2019-05-20T08:57:30.990Z,1.00
2019-05-20T09:00:01.517Z,1.00
2019-05-20T09:02:32.068Z,1.00
2019-05-20T09:05:02.921Z,1.00
2019-05-20T09:07:34.451Z,1.00
2019-05-20T09:10:06.768Z,1.00
2019-05-20T09:12:38.280Z,1.00
2019-05-20T09:15:09.114Z,1.00
2019-05-20T09:17:40.065Z,1.00
2019-05-20T09:20:11.999Z,1.00
2019-05-20T09:22:42.393Z,1.00
2019-05-20T09:25:14.433Z,1.00
2019-05-20T09:27:45.090Z,23.70
2019-05-20T09:30:16.367Z,25.50
2019-05-20T09:32:47.630Z,35.40
2019-05-20T09:35:18.269Z,99.40
2019-05-20T09:37:48.741Z,99.90
2019-05-20T09:40:35.831Z,99.90
2019-05-20T09:43:07.505Z,99.90
2019-05-20T09:45:38.209Z,99.90
2019-05-20T09:48:09.499Z,99.90
2019-05-20T09:50:40.142Z,99.90
2019-05-20T09:53:10.800Z,99.90
2019-05-20T09:55:41.381Z,99.90
2019-05-20T09:58:11.955Z,99.90
2019-05-20T10:00:42.462Z,99.90
2019-05-20T10:03:12.947Z,99.90
2019-05-20T10:05:43.409Z,99.90
2019-05-20T10:08:13.994Z,99.90
2019-05-20T10:10:44.465Z,99.90
2019-05-20T10:13:15.109Z,99.90
2019-05-20T10:15:46.274Z,99.90
2019-05-20T10:18:35.665Z,99.90
2019-05-20T10:20:49.187Z,99.90
2019-05-20T10:23:19.651Z,99.90
2019-05-20T10:25:50.126Z,99.90
2019-05-20T10:28:20.990Z,99.90
2019-05-20T10:30:51.486Z,99.90
2019-05-20T10:33:21.933Z,91.10
2019-05-20T10:35:52.939Z,99.90
2019-05-20T10:38:23.420Z,99.90
2019-05-20T10:40:53.923Z,99.90
2019-05-20T10:43:24.390Z,99.90
2019-05-20T10:45:56.369Z,41.00
2019-05-20T10:48:27.019Z,1.00
2019-05-20T10:50:57.545Z,1.00
2019-05-20T10:53:28.561Z,19.30
2019-05-20T10:55:59.483Z,56.10
2019-05-20T10:58:30.636Z,1.00
2019-05-20T11:01:03.517Z,1.00
2019-05-20T11:03:33.279Z,5.80
2019-05-20T11:06:05.980Z,30.10
2019-05-20T11:08:36.993Z,99.90
2019-05-20T11:11:07.551Z,99.90
2019-05-20T11:13:38.015Z,99.90
2019-05-20T11:16:08.518Z,99.90
2019-05-20T11:18:39.805Z,99.90
2019-05-20T11:21:10.226Z,99.90
2019-05-20T11:23:40.761Z,99.90
2019-05-20T11:26:11.225Z,99.90
2019-05-20T11:28:41.690Z,99.90
2019-05-20T11:31:12.102Z,99.90
2019-05-20T11:33:42.562Z,99.90
2019-05-20T11:36:13.011Z,99.90
2019-05-20T11:38:43.501Z,99.90
2019-05-20T11:41:13.945Z,99.90
2019-05-20T11:43:44.423Z,99.90
2019-05-20T11:46:15.223Z,99.90
2019-05-20T11:48:46.065Z,99.90
2019-05-20T11:51:16.527Z,99.90
2019-05-20T11:53:46.966Z,99.90
2019-05-20T11:56:19.066Z,99.90
2019-05-20T11:58:49.780Z,99.90
2019-05-20T12:01:20.486Z,99.90
2019-05-20T12:03:51.307Z,99.90
2019-05-20T12:06:21.753Z,99.90
2019-05-20T12:08:52.238Z,99.90
2019-05-20T12:11:22.729Z,99.90
2019-05-20T12:13:53.169Z,99.90
2019-05-20T12:16:23.625Z,99.90
2019-05-20T12:18:54.141Z,99.90
2019-05-20T12:21:24.566Z,99.90
2019-05-20T12:23:55.011Z,99.90
2019-05-20T12:26:25.785Z,99.90
2019-05-20T12:28:56.303Z,99.90
2019-05-20T12:31:27.000Z,99.90
2019-05-20T12:33:58.238Z,99.90
2019-05-20T12:36:28.696Z,99.90
2019-05-20T12:38:59.121Z,1.40
2019-05-20T12:41:29.628Z,99.90
2019-05-20T12:44:12.290Z,99.90
2019-05-20T12:46:32.239Z,99.90
2019-05-20T12:49:02.787Z,99.90
2019-05-20T12:51:33.228Z,99.90
2019-05-20T12:54:03.703Z,99.90
2019-05-20T12:56:34.285Z,99.90
2019-05-20T12:59:05.451Z,99.90
2019-05-20T13:01:36.469Z,99.90
2019-05-20T13:04:07.173Z,99.90
2019-05-20T13:06:37.663Z,99.90
2019-05-20T13:09:08.593Z,99.90
2019-05-20T13:11:40.619Z,99.90
2019-05-20T13:14:11.295Z,99.90
2019-05-20T13:16:42.107Z,99.90
2019-05-20T13:19:12.811Z,99.90
2019-05-20T13:21:43.249Z,99.90
2019-05-20T13:24:14.392Z,99.90
2019-05-20T13:26:45.042Z,99.90
2019-05-20T13:29:15.481Z,99.90
2019-05-20T13:31:47.547Z,99.90
2019-05-20T13:34:18.712Z,99.90
2019-05-20T13:36:49.565Z,99.90
2019-05-20T13:39:20.041Z,99.90
2019-05-20T13:41:50.750Z,99.90
2019-05-20T13:44:23.022Z,99.90
2019-05-20T13:46:53.780Z,99.90
2019-05-20T13:49:24.485Z,99.90
2019-05-20T13:51:55.124Z,99.90
2019-05-20T13:54:25.689Z,99.90
2019-05-20T13:56:56.135Z,99.90
2019-05-20T13:59:26.596Z,1.00
2019-05-20T14:01:57.045Z,99.90
2019-05-20T14:04:27.819Z,99.90
2019-05-20T14:06:58.289Z,99.90
2019-05-20T14:09:28.845Z,99.90
2019-05-20T14:11:59.308Z,99.90
2019-05-20T14:14:29.834Z,1.00
2019-05-20T14:17:00.370Z,99.90
2019-05-20T14:19:31.120Z,99.90
2019-05-20T14:22:01.704Z,1.40
2019-05-20T14:24:32.319Z,99.90
2019-05-20T14:27:02.832Z,1.00
2019-05-20T14:29:33.427Z,99.90
2019-05-20T14:32:03.980Z,99.90
2019-05-20T14:34:34.618Z,1.00
2019-05-20T14:37:05.325Z,99.90
2019-05-20T14:39:35.910Z,99.90
2019-05-20T14:42:06.625Z,99.90
2019-05-20T14:44:37.438Z,99.90
2019-05-20T14:47:07.984Z,99.90
2019-05-20T14:49:38.509Z,99.90
2019-05-20T14:52:09.029Z,99.90
2019-05-20T14:54:39.887Z,99.90
2019-05-20T14:57:10.575Z,99.90
2019-05-20T14:59:41.228Z,99.90
2019-05-20T15:02:11.710Z,99.90
2019-05-20T15:04:42.468Z,99.90
2019-05-20T15:07:12.941Z,99.90
2019-05-20T15:09:43.699Z,99.90
2019-05-20T15:12:14.241Z,99.90
2019-05-20T15:14:45.050Z,99.90
2019-05-20T15:17:15.577Z,99.90
2019-05-20T15:19:46.049Z,99.90
2019-05-20T15:22:16.485Z,99.90
2019-05-20T15:24:47.356Z,99.90
2019-05-20T15:27:17.896Z,99.90
2019-05-20T15:29:49.075Z,99.90
2019-05-20T15:32:38.067Z,99.90
2019-05-20T15:35:10.693Z,99.90
2019-05-20T15:37:42.833Z,99.90
2019-05-20T15:40:15.036Z,99.90
2019-05-20T15:42:54.238Z,99.90
2019-05-20T15:45:33.309Z,99.90
2019-05-20T15:48:56.826Z,99.90
2019-05-20T16:11:48.428Z,99.90
2019-05-20T16:14:58.015Z,99.90
2019-05-20T16:34:06.270Z,99.90
2019-05-20T16:37:07.909Z,99.90
2019-05-20T16:39:58.627Z,99.90
2019-05-20T16:42:43.447Z,99.90
2019-05-20T16:46:00.532Z,99.90
2019-05-20T17:03:01.180Z,99.90
2019-05-20T17:28:25.420Z,99.90
2019-05-20T18:02:24.109Z,1.00
2019-05-20T18:20:02.993Z,1.00
2019-05-20T18:26:03.449Z,1.00
2019-05-20T18:28:32.985Z,1.00
2019-05-20T18:31:08.906Z,1.00
2019-05-20T18:33:39.760Z,99.90
2019-05-20T18:48:25.202Z,1.00
2019-05-20T19:03:41.473Z,1.00
2019-05-20T19:19:45.899Z,1.00
2019-05-20T19:22:32.588Z,1.00
2019-05-20T19:25:14.189Z,1.00
2019-05-20T19:27:44.958Z,1.00
2019-05-20T19:30:18.843Z,1.00
2019-05-20T19:32:58.921Z,1.00
2019-05-20T19:35:29.381Z,1.00
2019-05-20T19:37:59.963Z,1.00
2019-05-20T19:40:34.837Z,1.00
2019-05-20T19:43:08.489Z,1.00
2019-05-20T19:45:41.441Z,1.00
2019-05-20T19:48:12.100Z,1.00
2019-05-20T19:50:42.743Z,1.00
2019-05-20T19:53:13.396Z,1.00
2019-05-20T19:55:46.554Z,1.00
2019-05-20T19:58:17.076Z,1.00
2019-05-20T20:00:56.644Z,1.00
2019-05-20T20:03:28.851Z,99.90
2019-05-20T20:06:08.658Z,1.40
2019-05-20T20:08:39.403Z,99.90
2019-05-20T20:11:09.859Z,99.90
2019-05-20T20:13:40.729Z,99.90
2019-05-20T20:22:11.187Z,99.90
2019-05-20T20:25:36.815Z,99.90
2019-05-20T20:28:07.368Z,99.90
2019-05-20T20:30:38.484Z,99.90
2019-05-20T20:33:10.030Z,99.90
2019-05-20T20:35:40.828Z,99.90
2019-05-20T20:38:11.577Z,1.00
2019-05-20T20:40:44.191Z,99.90
2019-05-20T20:43:16.281Z,99.90
2019-05-20T20:45:49.324Z,99.90
2019-05-20T22:26:37.780Z,99.90
2019-05-20T22:29:08.635Z,99.90
2019-05-20T22:31:39.626Z,99.90
2019-05-20T22:34:11.678Z,99.90
2019-05-20T22:36:43.007Z,99.90
2019-05-20T22:39:32.304Z,99.90
2019-05-20T22:42:34.052Z,99.90
2019-05-20T22:45:11.047Z,99.90
2019-05-20T23:03:56.689Z,99.90
2019-05-20T23:06:27.185Z,99.90
2019-05-20T23:09:07.718Z,99.90
2019-05-20T23:11:46.257Z,99.90
2019-05-20T23:25:30.764Z,99.90
2019-05-20T23:30:37.494Z,99.90
2019-05-20T23:33:08.281Z,99.90
2019-05-20T23:35:38.987Z,1.00
2019-05-20T23:38:11.131Z,99.90
2019-05-20T23:40:41.668Z,99.90
2019-05-20T23:43:12.867Z,99.90
2019-05-20T23:45:45.076Z,99.90
2019-05-20T23:48:18.709Z,99.90
2019-05-20T23:50:54.316Z,99.90
2019-05-20T23:53:24.831Z,99.90
2019-05-20T23:55:55.411Z,99.90
2019-05-20T23:58:25.852Z,99.90
